Time;durP1;ratioP1;P1;durP2;ratioP2;P2;SDS_P1;SDS_P2;PMS_P1;PMS_P2;Temp;Humidity;BMP_temperature;BMP_pressure;BME280_temperature;BME280_humidity;BME280_pressure;Samples;Min_cycle;Max_cycle;Signal;HPM_P1;HPM_P2
2023/12/29 00:01:51;;;;;;;10.63;1.83;;;10.70;99.90;;;;;;5035955;28;20500;-39
2023/12/29 00:04:17;;;;;;;15.23;1.10;;;10.80;99.90;;;;;;5036028;28;20108;-39
2023/12/29 00:06:43;;;;;;;3.63;0.70;;;10.70;99.90;;;;;;5035334;28;20105;-36
2023/12/29 00:09:09;;;;;;;11.27;1.27;;;10.70;99.90;;;;;;5035892;28;20021;-36
2023/12/29 00:11:34;;;;;;;13.35;2.17;;;10.60;99.90;;;;;;5034299;28;20540;-38
2023/12/29 00:14:00;;;;;;;10.23;1.35;;;10.50;99.90;;;;;;5034136;28;20029;-37
2023/12/29 00:16:27;;;;;;;16.67;2.58;;;10.40;99.90;;;;;;5035487;28;20041;-39
2023/12/29 00:18:53;;;;;;;11.20;1.25;;;10.30;99.90;;;;;;5035729;28;20032;-43
2023/12/29 00:21:18;;;;;;;8.38;1.30;;;10.10;99.90;;;;;;5031732;28;20022;-41
2023/12/29 00:23:44;;;;;;;6.88;1.50;;;10.20;99.90;;;;;;5025412;28;20064;-38
2023/12/29 00:26:10;;;;;;;9.23;1.65;;;10.10;99.90;;;;;;5035881;28;20045;-42
2023/12/29 00:28:40;;;;;;;8.52;1.38;;;10.10;99.90;;;;;;5035663;28;20080;-37
2023/12/29 00:31:06;;;;;;;11.15;2.20;;;10.10;99.90;;;;;;5034848;28;20508;-38
2023/12/29 00:33:31;;;;;;;9.48;2.28;;;10.10;99.90;;;;;;5035185;28;20021;-39
2023/12/29 00:35:57;;;;;;;3.63;1.42;;;10.20;99.90;;;;;;5034802;28;20565;-40
2023/12/29 00:38:24;;;;;;;11.80;2.00;;;10.20;99.90;;;;;;5034882;28;20482;-43
2023/12/29 00:40:50;;;;;;;8.43;1.63;;;10.30;99.90;;;;;;5034332;28;20028;-38
2023/12/29 00:43:15;;;;;;;19.30;1.35;;;10.30;99.90;;;;;;5034724;28;20014;-43
2023/12/29 00:45:41;;;;;;;10.15;1.50;;;10.30;99.90;;;;;;5034784;28;20028;-36
2023/12/29 00:48:07;;;;;;;13.90;1.85;;;10.40;99.90;;;;;;5034855;28;20486;-39
2023/12/29 00:50:32;;;;;;;11.82;1.48;;;10.50;99.90;;;;;;5033259;28;20037;-40
2023/12/29 00:52:58;;;;;;;6.95;1.73;;;10.50;99.90;;;;;;5034957;28;20355;-37
2023/12/29 00:55:23;;;;;;;15.93;2.55;;;10.50;99.90;;;;;;5034625;28;20037;-45
2023/12/29 00:57:49;;;;;;;6.93;1.50;;;10.50;99.90;;;;;;5035289;28;20463;-38
2023/12/29 01:00:15;;;;;;;5.38;1.60;;;10.60;99.90;;;;;;5034415;28;20035;-40
2023/12/29 01:02:40;;;;;;;7.63;1.10;;;10.60;99.90;;;;;;5034351;28;20096;-39
2023/12/29 01:05:06;;;;;;;6.13;1.10;;;10.60;99.90;;;;;;5034305;28;20025;-42
2023/12/29 01:07:32;;;;;;;8.73;2.45;;;10.60;99.90;;;;;;5034494;28;20470;-40
2023/12/29 01:09:58;;;;;;;5.72;2.00;;;10.60;99.90;;;;;;5034838;28;20036;-42
2023/12/29 01:12:23;;;;;;;10.18;1.40;;;10.60;99.90;;;;;;5033169;28;20022;-41
2023/12/29 01:14:49;;;;;;;11.38;1.38;;;10.70;99.90;;;;;;5032770;28;20071;-39
2023/12/29 01:17:14;;;;;;;14.45;1.90;;;10.60;99.90;;;;;;5034058;28;20491;-38
2023/12/29 01:19:40;;;;;;;7.70;1.27;;;10.60;99.90;;;;;;5034651;28;20021;-39
2023/12/29 01:22:06;;;;;;;9.13;1.40;;;10.60;99.90;;;;;;5034326;28;20411;-41
2023/12/29 01:24:31;;;;;;;5.65;1.20;;;10.60;99.90;;;;;;5034343;28;20021;-39
2023/12/29 01:26:57;;;;;;;8.77;1.30;;;10.60;99.90;;;;;;5034590;28;20079;-39
2023/12/29 01:29:22;;;;;;;7.97;1.08;;;10.60;99.90;;;;;;5034251;28;20101;-40
2023/12/29 01:31:48;;;;;;;18.23;2.83;;;10.60;99.90;;;;;;5034403;28;20030;-42
2023/12/29 01:34:14;;;;;;;5.30;1.55;;;10.60;99.90;;;;;;5034052;28;20554;-43
2023/12/29 01:36:39;;;;;;;18.80;2.75;;;10.60;99.90;;;;;;5032936;28;20100;-40
2023/12/29 01:39:05;;;;;;;14.57;1.85;;;10.60;99.90;;;;;;5031558;28;20033;-38
2023/12/29 01:41:31;;;;;;;10.20;1.50;;;10.60;99.90;;;;;;5033367;28;20034;-45
2023/12/29 01:43:56;;;;;;;7.30;1.55;;;10.50;99.90;;;;;;5034141;28;20083;-46
2023/12/29 01:46:27;;;;;;;6.60;1.48;;;10.50;99.90;;;;;;5033683;28;20061;-40
2023/12/29 01:48:53;;;;;;;4.40;1.30;;;10.60;99.90;;;;;;5033486;28;20104;-41
2023/12/29 01:51:23;;;;;;;7.00;1.38;;;10.60;99.90;;;;;;5034028;28;20033;-42
2023/12/29 01:53:50;;;;;;;5.50;1.08;;;10.50;99.90;;;;;;5033345;28;20120;-43
2023/12/29 01:56:16;;;;;;;2.65;1.50;;;10.60;99.90;;;;;;5033798;28;20033;-40
2023/12/29 01:58:47;;;;;;;8.43;1.30;;;10.60;99.90;;;;;;5032798;28;20474;-46
2023/12/29 02:01:13;;;;;;;3.83;1.23;;;10.60;99.90;;;;;;5033690;28;20030;-40
2023/12/29 02:03:39;;;;;;;9.70;1.30;;;10.60;99.90;;;;;;5033310;28;20111;-42
2023/12/29 02:06:06;;;;;;;8.27;1.40;;;10.60;99.90;;;;;;5032823;28;20048;-36
2023/12/29 02:08:32;;;;;;;5.97;1.15;;;10.60;99.90;;;;;;5033206;28;20026;-36
2023/12/29 02:10:58;;;;;;;7.60;1.15;;;10.60;99.90;;;;;;5033561;28;20030;-38
2023/12/29 02:13:24;;;;;;;11.52;1.30;;;10.50;99.90;;;;;;5033563;28;20559;-46
2023/12/29 02:15:58;;;;;;;3.90;1.23;;;10.50;99.90;;;;;;5033438;28;20077;-52
2023/12/29 02:18:26;;;;;;;14.38;1.58;;;10.50;99.90;;;;;;5033053;28;20037;-40
2023/12/29 02:20:51;;;;;;;5.00;1.55;;;10.50;99.90;;;;;;5031694;28;20036;-40
2023/12/29 02:23:17;;;;;;;6.45;1.25;;;10.50;99.90;;;;;;5033102;28;20104;-48
2023/12/29 02:25:43;;;;;;;5.82;1.45;;;10.50;99.90;;;;;;5033166;28;20537;-51
2023/12/29 02:28:22;;;;;;;7.53;1.30;;;10.50;99.90;;;;;;5032960;28;20032;-53
2023/12/29 02:30:56;;;;;;;7.47;1.65;;;10.40;99.90;;;;;;5033371;28;20505;-50
2023/12/29 02:33:22;;;;;;;3.80;1.00;;;10.40;99.90;;;;;;5033353;28;20083;-47
2023/12/29 02:35:51;;;;;;;19.90;1.55;;;10.40;99.90;;;;;;5033232;28;20497;-52
2023/12/29 02:38:17;;;;;;;7.78;1.63;;;10.40;99.90;;;;;;5013502;28;20537;-52
2023/12/29 02:40:43;;;;;;;3.63;1.60;;;10.40;99.90;;;;;;5013413;28;20057;-47
2023/12/29 02:43:09;;;;;;;6.85;1.75;;;10.40;99.90;;;;;;5016770;28;20079;-50
2023/12/29 02:45:35;;;;;;;8.93;1.63;;;10.20;99.90;;;;;;5032977;28;20363;-54
2023/12/29 02:48:01;;;;;;;15.32;2.33;;;10.20;99.90;;;;;;5032626;28;20052;-52
2023/12/29 02:50:26;;;;;;;12.55;1.98;;;10.20;99.90;;;;;;5031246;28;20040;-52
2023/12/29 02:52:52;;;;;;;7.88;1.30;;;10.20;99.90;;;;;;5032757;28;20083;-52
2023/12/29 02:55:18;;;;;;;5.65;1.20;;;10.10;99.90;;;;;;5032711;28;20029;-54
2023/12/29 02:57:44;;;;;;;9.95;1.88;;;10.10;99.90;;;;;;5032955;28;20029;-50
2023/12/29 03:00:10;;;;;;;10.52;1.60;;;10.20;99.90;;;;;;5032551;28;20482;-48
2023/12/29 03:02:36;;;;;;;8.88;1.45;;;10.10;99.90;;;;;;5032999;28;20471;-49
2023/12/29 03:05:02;;;;;;;10.23;2.00;;;10.10;99.90;;;;;;5032459;28;20018;-50
2023/12/29 03:07:28;;;;;;;6.22;1.90;;;10.10;99.90;;;;;;5032421;28;20479;-53
2023/12/29 03:09:54;;;;;;;14.57;2.22;;;10.20;99.90;;;;;;5032543;28;20029;-51
2023/12/29 03:12:19;;;;;;;10.35;1.65;;;10.30;99.90;;;;;;5032350;28;20025;-50
2023/12/29 03:14:47;;;;;;;15.02;1.88;;;10.20;99.90;;;;;;5032963;28;20383;-49
2023/12/29 03:17:12;;;;;;;8.75;1.33;;;10.30;99.90;;;;;;5032259;28;20449;-53
2023/12/29 03:19:38;;;;;;;21.00;2.42;;;10.30;99.90;;;;;;5032415;28;20025;-48
2023/12/29 03:22:04;;;;;;;6.72;1.17;;;10.30;99.90;;;;;;5032419;28;20040;-52
2023/12/29 03:24:30;;;;;;;17.67;2.38;;;10.30;99.90;;;;;;5032333;28;20022;-52
2023/12/29 03:26:56;;;;;;;9.05;1.80;;;10.20;99.90;;;;;;5032862;28;20028;-49
2023/12/29 03:29:22;;;;;;;19.10;2.53;;;10.20;99.90;;;;;;5032824;28;20496;-55
2023/12/29 03:31:47;;;;;;;10.27;1.88;;;10.20;99.90;;;;;;5027923;28;20104;-52
2023/12/29 03:34:13;;;;;;;11.98;2.03;;;10.20;99.90;;;;;;5030194;28;20025;-39
2023/12/29 03:36:39;;;;;;;3.22;1.20;;;10.10;99.90;;;;;;5031906;28;20033;-37
2023/12/29 03:39:04;;;;;;;9.68;1.30;;;10.10;99.90;;;;;;5032473;28;20083;-36
2023/12/29 03:41:30;;;;;;;9.88;1.48;;;10.10;99.90;;;;;;5032111;28;20029;-39
2023/12/29 03:43:56;;;;;;;10.40;1.90;;;10.10;99.90;;;;;;5032705;28;20447;-38
2023/12/29 03:46:22;;;;;;;5.97;1.27;;;10.10;99.90;;;;;;5032438;28;20027;-37
2023/12/29 03:48:49;;;;;;;14.23;1.80;;;10.10;99.90;;;;;;5031995;28;20509;-37
2023/12/29 03:51:18;;;;;;;12.43;1.30;;;10.10;99.90;;;;;;5032682;28;20021;-39
2023/12/29 03:53:44;;;;;;;9.32;1.70;;;10.10;99.90;;;;;;5032196;28;20116;-52
2023/12/29 03:56:14;;;;;;;9.88;1.67;;;10.20;99.90;;;;;;5032087;28;20123;-52
2023/12/29 03:58:39;;;;;;;8.07;1.55;;;10.20;99.90;;;;;;5032263;28;20033;-51
2023/12/29 04:01:10;;;;;;;10.15;1.70;;;10.20;99.90;;;;;;5032274;28;20379;-53
2023/12/29 04:03:37;;;;;;;8.63;2.67;;;10.20;99.90;;;;;;5031961;28;20164;-51
2023/12/29 04:06:02;;;;;;;10.88;1.30;;;10.30;99.90;;;;;;5030961;28;20457;-52
2023/12/29 04:08:28;;;;;;;13.10;2.05;;;10.30;99.90;;;;;;5032182;28;20049;-54
2023/12/29 04:10:54;;;;;;;9.73;2.65;;;10.30;99.90;;;;;;5032015;28;20467;-53
2023/12/29 04:13:19;;;;;;;14.63;2.72;;;10.30;99.90;;;;;;5021503;28;20034;-50
2023/12/29 04:15:45;;;;;;;15.15;3.17;;;10.30;99.90;;;;;;5012233;28;20564;-36
2023/12/29 04:18:10;;;;;;;15.20;2.17;;;10.30;99.90;;;;;;5018440;28;20033;-38
2023/12/29 04:20:36;;;;;;;17.92;3.00;;;10.30;99.90;;;;;;5033241;28;20022;-38
2023/12/29 04:23:03;;;;;;;24.50;1.98;;;10.30;99.90;;;;;;5035255;28;20022;-39
2023/12/29 04:25:29;;;;;;;21.35;2.88;;;10.30;99.90;;;;;;5035679;28;20100;-38
2023/12/29 04:27:55;;;;;;;13.35;1.80;;;10.30;99.90;;;;;;5034148;28;20460;-40
2023/12/29 04:30:21;;;;;;;14.05;1.52;;;10.30;99.90;;;;;;5033735;28;20037;-38
2023/12/29 04:32:47;;;;;;;15.15;2.33;;;10.30;99.90;;;;;;5035570;28;20025;-37
2023/12/29 04:35:14;;;;;;;8.30;1.60;;;10.40;99.90;;;;;;5035471;28;20523;-36
2023/12/29 04:37:41;;;;;;;14.50;1.95;;;10.30;99.90;;;;;;5035042;28;20497;-44
2023/12/29 04:40:07;;;;;;;17.15;2.10;;;10.40;99.90;;;;;;5035401;28;20482;-37
2023/12/29 04:42:33;;;;;;;10.27;2.67;;;10.40;99.90;;;;;;5035558;28;20068;-39
2023/12/29 04:44:58;;;;;;;12.65;2.40;;;10.50;99.90;;;;;;5035144;28;20456;-38
2023/12/29 04:47:24;;;;;;;25.17;2.47;;;10.50;99.90;;;;;;5034835;28;20413;-37
2023/12/29 04:49:50;;;;;;;20.75;2.72;;;10.60;99.90;;;;;;5035239;28;20044;-38
2023/12/29 04:52:15;;;;;;;21.25;3.25;;;10.60;99.90;;;;;;5034836;28;20061;-40
2023/12/29 04:54:41;;;;;;;15.02;2.05;;;10.60;99.90;;;;;;5034259;28;20405;-41
2023/12/29 04:57:07;;;;;;;11.95;2.10;;;10.60;99.90;;;;;;5034824;28;20040;-39
2023/12/29 04:59:32;;;;;;;18.52;2.28;;;10.60;99.90;;;;;;5034916;28;20066;-52
2023/12/29 05:01:58;;;;;;;13.05;3.10;;;10.60;99.90;;;;;;5035053;28;20029;-53
2023/12/29 05:04:23;;;;;;;15.90;2.03;;;10.60;99.90;;;;;;5034707;28;20033;-52
2023/12/29 05:06:49;;;;;;;10.48;1.60;;;10.60;99.90;;;;;;5035109;28;20021;-52
2023/12/29 05:09:15;;;;;;;21.25;2.83;;;10.50;99.90;;;;;;5035154;28;20018;-52
2023/12/29 05:11:41;;;;;;;20.27;2.47;;;10.50;99.90;;;;;;5034644;28;20033;-53
2023/12/29 05:14:06;;;;;;;22.58;2.88;;;10.40;99.90;;;;;;5034178;28;20101;-50
2023/12/29 05:16:32;;;;;;;21.42;2.22;;;10.40;99.90;;;;;;5034487;28;20053;-52
2023/12/29 05:18:59;;;;;;;18.40;2.03;;;10.40;99.90;;;;;;5034412;28;20088;-50
2023/12/29 05:21:26;;;;;;;18.50;2.63;;;10.50;99.90;;;;;;5034778;28;20065;-52
2023/12/29 05:23:52;;;;;;;13.20;1.53;;;10.50;99.90;;;;;;5033990;28;20478;-53
2023/12/29 05:26:18;;;;;;;19.00;2.75;;;10.50;99.90;;;;;;5034301;28;20080;-53
2023/12/29 05:28:43;;;;;;;21.55;2.22;;;10.40;99.90;;;;;;5034679;28;20021;-53
2023/12/29 05:31:09;;;;;;;19.98;2.38;;;10.50;99.90;;;;;;5034370;28;20041;-52
2023/12/29 05:33:35;;;;;;;34.28;1.98;;;10.40;99.90;;;;;;5033790;28;20053;-54
2023/12/29 05:36:09;;;;;;;13.73;1.17;;;10.40;99.90;;;;;;5034281;28;20497;-51
2023/12/29 05:38:35;;;;;;;19.02;2.63;;;10.40;99.90;;;;;;5034154;28;20030;-54
2023/12/29 05:41:04;;;;;;;16.92;2.30;;;10.40;99.90;;;;;;5034184;28;20083;-40
2023/12/29 05:43:31;;;;;;;6.45;1.60;;;10.40;99.90;;;;;;5034299;28;20547;-39
2023/12/29 05:45:58;;;;;;;14.27;1.20;;;10.40;99.90;;;;;;5034212;28;20389;-41
2023/12/29 05:48:24;;;;;;;14.50;1.90;;;10.30;99.90;;;;;;5032272;28;20043;-40
2023/12/29 05:50:50;;;;;;;20.20;2.22;;;10.30;99.90;;;;;;5032924;28;20041;-41
2023/12/29 05:53:16;;;;;;;11.23;1.83;;;10.30;99.90;;;;;;5033724;28;20498;-38
2023/12/29 05:55:41;;;;;;;11.73;3.00;;;10.30;99.90;;;;;;5033934;28;20030;-42
2023/12/29 05:58:07;;;;;;;8.23;1.75;;;10.30;99.90;;;;;;5033364;28;20101;-40
2023/12/29 06:00:33;;;;;;;15.20;2.10;;;10.30;99.90;;;;;;5033704;28;20369;-39
2023/12/29 06:02:59;;;;;;;8.23;1.17;;;10.30;99.90;;;;;;5033537;28;20521;-38
2023/12/29 06:05:24;;;;;;;15.65;1.83;;;10.30;99.90;;;;;;5033426;28;20021;-42
2023/12/29 06:07:50;;;;;;;17.73;2.33;;;10.30;99.90;;;;;;5033792;28;20501;-39
2023/12/29 06:10:16;;;;;;;13.40;2.10;;;10.30;99.90;;;;;;5033799;28;20025;-39
2023/12/29 06:12:42;;;;;;;11.95;1.85;;;10.40;99.90;;;;;;5033343;28;20030;-39
2023/12/29 06:15:08;;;;;;;12.13;2.20;;;10.40;99.90;;;;;;5033634;28;20018;-41
2023/12/29 06:17:35;;;;;;;8.75;3.72;;;10.40;99.90;;;;;;5033082;28;20478;-42
2023/12/29 06:20:02;;;;;;;6.68;1.27;;;10.50;99.90;;;;;;5033817;28;20474;-53
2023/12/29 06:22:28;;;;;;;10.25;1.60;;;10.50;99.90;;;;;;5033152;28;20025;-52
2023/12/29 06:24:53;;;;;;;13.07;2.97;;;10.40;99.90;;;;;;5033473;28;20536;-52
2023/12/29 06:27:19;;;;;;;10.20;1.63;;;10.40;99.90;;;;;;5033287;28;20036;-51
2023/12/29 06:29:45;;;;;;;20.40;2.15;;;10.40;99.90;;;;;;5033418;28;20025;-53
2023/12/29 06:32:10;;;;;;;6.70;1.35;;;10.40;99.90;;;;;;5033018;28;20437;-50
2023/12/29 06:34:36;;;;;;;9.27;1.45;;;10.40;99.90;;;;;;5032808;28;20033;-53
2023/12/29 06:37:02;;;;;;;7.03;1.70;;;10.40;99.90;;;;;;5031715;28;20052;-53
2023/12/29 06:39:27;;;;;;;15.20;1.40;;;10.40;99.90;;;;;;5033190;28;20424;-53
2023/12/29 06:41:53;;;;;;;19.52;2.67;;;10.40;99.90;;;;;;5032335;28;20028;-53
2023/12/29 06:44:19;;;;;;;8.90;1.48;;;10.40;99.90;;;;;;5031632;28;20036;-51
2023/12/29 06:46:44;;;;;;;13.43;1.67;;;10.40;99.90;;;;;;5032430;28;20056;-53
2023/12/29 06:49:10;;;;;;;8.38;1.50;;;10.40;99.90;;;;;;5030848;28;20032;-53
2023/12/29 06:51:36;;;;;;;8.35;1.58;;;10.40;99.90;;;;;;5031758;28;20039;-52
2023/12/29 06:54:02;;;;;;;15.43;1.42;;;10.40;99.90;;;;;;5032980;28;20053;-38
2023/12/29 06:56:27;;;;;;;15.43;1.85;;;10.40;99.90;;;;;;5032564;28;20493;-41
2023/12/29 06:58:53;;;;;;;14.88;1.92;;;10.50;99.90;;;;;;5032547;28;20091;-38
2023/12/29 07:01:19;;;;;;;21.52;2.42;;;10.50;99.90;;;;;;5032324;28;20041;-39
2023/12/29 07:03:44;;;;;;;9.70;1.40;;;10.40;99.90;;;;;;5033085;28;20398;-44
2023/12/29 07:06:11;;;;;;;7.38;2.08;;;10.50;99.90;;;;;;5032465;28;20522;-54
2023/12/29 07:08:37;;;;;;;8.25;1.98;;;10.50;99.90;;;;;;5032620;28;20032;-53
2023/12/29 07:11:03;;;;;;;9.93;1.73;;;10.60;99.90;;;;;;5032202;28;20389;-53
2023/12/29 07:13:28;;;;;;;6.07;1.13;;;10.60;99.90;;;;;;5032537;28;20030;-52
2023/12/29 07:15:55;;;;;;;9.00;2.03;;;10.50;99.90;;;;;;5032218;28;20042;-50
2023/12/29 07:18:20;;;;;;;10.02;1.70;;;10.50;99.90;;;;;;5031279;28;20067;-53
2023/12/29 07:20:46;;;;;;;2.80;1.05;;;10.50;99.90;;;;;;5032539;28;20025;-52
2023/12/29 07:23:11;;;;;;;10.48;1.42;;;10.50;99.90;;;;;;5019543;28;20386;-59
2023/12/29 07:25:37;;;;;;;4.07;1.40;;;10.60;99.90;;;;;;5013413;28;20033;-40
2023/12/29 07:28:03;;;;;;;4.75;1.67;;;10.50;99.90;;;;;;5013157;28;20104;-41
2023/12/29 07:30:29;;;;;;;6.90;1.42;;;10.50;99.90;;;;;;5029424;28;20041;-54
2023/12/29 07:32:54;;;;;;;9.32;1.42;;;10.50;99.90;;;;;;5032570;28;20029;-53
2023/12/29 07:35:20;;;;;;;4.32;1.70;;;10.50;99.90;;;;;;5032172;28;20441;-53
2023/12/29 07:37:46;;;;;;;3.50;1.65;;;10.40;99.90;;;;;;5032394;28;20055;-53
2023/12/29 07:40:13;;;;;;;7.18;1.55;;;10.40;99.90;;;;;;5032409;28;20034;-61
2023/12/29 07:42:44;;;;;;;10.48;1.98;;;10.40;99.90;;;;;;5032467;28;20487;-54
2023/12/29 07:45:10;;;;;;;7.78;2.00;;;10.30;99.90;;;;;;5031968;28;20470;-52
2023/12/29 07:47:36;;;;;;;6.57;2.70;;;10.30;99.90;;;;;;5031548;28;20458;-53
2023/12/29 07:50:02;;;;;;;4.25;1.60;;;10.30;99.90;;;;;;5032082;28;20424;-52
2023/12/29 07:52:29;;;;;;;12.77;2.50;;;10.30;99.90;;;;;;5030249;28;20037;-54
2023/12/29 07:54:55;;;;;;;5.28;1.80;;;10.30;99.90;;;;;;5032899;28;20537;-53
2023/12/29 07:57:21;;;;;;;12.93;2.28;;;10.40;99.90;;;;;;5036075;28;20108;-53
2023/12/29 07:59:46;;;;;;;9.30;2.00;;;10.40;99.90;;;;;;5036135;28;20029;-39
2023/12/29 08:02:12;;;;;;;8.02;1.63;;;10.40;99.90;;;;;;5036058;28;20036;-43
2023/12/29 08:04:38;;;;;;;4.05;1.63;;;10.40;99.90;;;;;;5036101;28;20021;-40
2023/12/29 08:07:04;;;;;;;5.43;1.70;;;10.50;99.90;;;;;;5034916;28;20021;-42
2023/12/29 08:09:30;;;;;;;4.50;1.52;;;10.50;99.90;;;;;;5034495;28;20501;-39
2023/12/29 08:11:55;;;;;;;4.63;1.17;;;10.50;99.90;;;;;;5035134;28;20049;-39
2023/12/29 08:14:22;;;;;;;8.00;1.40;;;10.50;99.90;;;;;;5035922;28;20029;-42
2023/12/29 08:16:47;;;;;;;6.43;1.50;;;10.50;99.90;;;;;;5035420;28;20045;-42
2023/12/29 08:19:15;;;;;;;9.20;1.48;;;10.60;99.90;;;;;;5035813;28;20397;-40
2023/12/29 08:21:40;;;;;;;5.07;1.02;;;10.60;99.90;;;;;;5035689;28;20561;-52
2023/12/29 08:24:06;;;;;;;3.08;1.10;;;10.60;99.90;;;;;;5033938;28;20092;-41
2023/12/29 08:26:32;;;;;;;11.02;1.45;;;10.60;99.90;;;;;;5035794;28;20581;-40
2023/12/29 08:28:58;;;;;;;2.78;1.10;;;10.70;99.90;;;;;;5035511;28;20037;-39
2023/12/29 08:31:23;;;;;;;5.03;1.10;;;10.60;99.90;;;;;;5034188;28;20035;-47
2023/12/29 08:33:49;;;;;;;4.10;1.30;;;10.60;99.90;;;;;;5024592;28;20389;-44
2023/12/29 08:36:19;;;;;;;5.95;1.17;;;10.60;99.90;;;;;;5035263;28;20075;-42
2023/12/29 08:38:45;;;;;;;5.10;1.13;;;10.70;99.90;;;;;;5035793;28;20474;-42
2023/12/29 08:41:13;;;;;;;8.85;1.38;;;10.70;99.90;;;;;;5033842;28;20032;-41
2023/12/29 08:43:39;;;;;;;8.68;1.40;;;10.70;99.90;;;;;;5034819;28;20049;-41
2023/12/29 08:46:05;;;;;;;3.08;1.55;;;10.80;99.90;;;;;;5034917;28;20048;-41
2023/12/29 08:48:30;;;;;;;8.40;1.33;;;10.70;99.90;;;;;;5033687;28;20022;-44
2023/12/29 08:50:56;;;;;;;8.57;1.85;;;10.80;99.90;;;;;;5035257;28;20064;-39
2023/12/29 08:53:22;;;;;;;7.65;1.52;;;10.70;99.90;;;;;;5035149;28;20029;-46
2023/12/29 08:55:48;;;;;;;6.80;0.98;;;10.70;99.90;;;;;;5035030;28;20382;-38
2023/12/29 08:58:13;;;;;;;4.68;0.93;;;10.60;99.90;;;;;;5035383;28;20045;-39
2023/12/29 09:00:39;;;;;;;18.60;1.70;;;10.50;99.90;;;;;;5034424;28;20040;-38
2023/12/29 09:03:05;;;;;;;3.72;1.10;;;10.40;99.90;;;;;;5035053;28;20034;-55
2023/12/29 09:05:30;;;;;;;5.65;1.35;;;10.40;99.90;;;;;;5034656;28;20363;-54
2023/12/29 09:07:56;;;;;;;5.65;1.30;;;10.50;99.90;;;;;;5034319;28;20095;-58
2023/12/29 09:10:22;;;;;;;7.28;1.45;;;10.50;99.90;;;;;;5034588;28;20136;-52
2023/12/29 09:12:49;;;;;;;2.67;1.00;;;10.50;99.90;;;;;;5035059;28;20409;-55
2023/12/29 09:15:15;;;;;;;4.40;1.30;;;10.60;99.90;;;;;;5034689;28;20022;-54
2023/12/29 09:17:40;;;;;;;1.35;0.85;;;10.60;99.90;;;;;;5034405;28;20490;-55
2023/12/29 09:20:07;;;;;;;10.30;1.10;;;10.70;99.90;;;;;;5034439;28;20079;-56
2023/12/29 09:22:33;;;;;;;2.40;1.38;;;10.70;99.90;;;;;;5034544;28;20040;-55
2023/12/29 09:24:59;;;;;;;7.82;1.08;;;10.70;99.90;;;;;;5034360;28;20449;-54
2023/12/29 09:27:25;;;;;;;7.43;1.00;;;10.70;99.90;;;;;;5034592;28;20385;-55
2023/12/29 09:29:50;;;;;;;7.82;1.15;;;10.70;99.90;;;;;;5034178;28;20028;-52
2023/12/29 09:32:16;;;;;;;4.20;0.85;;;10.80;99.90;;;;;;5034104;28;20025;-55
2023/12/29 09:34:42;;;;;;;1.52;0.77;;;10.80;99.90;;;;;;5033932;28;20488;-54
2023/12/29 09:37:08;;;;;;;6.15;0.93;;;10.80;99.90;;;;;;5034406;28;20088;-57
2023/12/29 09:39:34;;;;;;;5.00;1.08;;;10.90;99.90;;;;;;5034367;28;20043;-53
2023/12/29 09:42:01;;;;;;;7.88;1.60;;;10.90;99.90;;;;;;5034008;28;20429;-54
2023/12/29 09:44:28;;;;;;;6.95;1.17;;;11.00;99.90;;;;;;5032478;28;20079;-53
2023/12/29 09:46:56;;;;;;;4.15;0.93;;;11.00;99.90;;;;;;5033816;28;20033;-53
2023/12/29 09:49:23;;;;;;;8.18;0.90;;;11.00;99.90;;;;;;5031607;28;20026;-38
2023/12/29 09:51:48;;;;;;;9.30;1.23;;;11.00;99.90;;;;;;5033867;28;20065;-39
2023/12/29 09:54:15;;;;;;;6.47;1.00;;;11.00;99.90;;;;;;5033771;28;20060;-37
2023/12/29 09:56:41;;;;;;;3.53;0.90;;;11.00;99.90;;;;;;5034080;28;20060;-38
2023/12/29 09:59:10;;;;;;;6.10;1.10;;;11.00;99.90;;;;;;5033705;28;20474;-39
2023/12/29 10:01:38;;;;;;;4.53;1.33;;;11.10;99.90;;;;;;5029411;28;20363;-52
2023/12/29 10:04:04;;;;;;;3.75;1.13;;;11.10;99.90;;;;;;5043920;28;20102;-38
2023/12/29 10:06:34;;;;;;;2.47;0.90;;;11.20;99.90;;;;;;5053687;28;20060;-40
2023/12/29 10:09:04;;;;;;;7.50;1.52;;;11.20;99.90;;;;;;5026615;28;20482;-39
2023/12/29 10:11:33;;;;;;;2.53;1.02;;;11.30;99.90;;;;;;5032411;28;20486;-53
2023/12/29 10:14:03;;;;;;;3.63;1.20;;;11.40;99.90;;;;;;5033613;28;20017;-57
2023/12/29 10:16:37;;;;;;;7.22;1.42;;;11.40;99.90;;;;;;5033284;28;20513;-54
2023/12/29 10:19:23;;;;;;;3.70;1.67;;;11.40;99.90;;;;;;5032546;28;20029;-55
2023/12/29 10:21:58;;;;;;;1.77;0.93;;;11.40;99.90;;;;;;5032651;28;20035;-52
2023/12/29 10:24:24;;;;;;;5.60;1.00;;;11.40;99.90;;;;;;5033532;28;20440;-54
2023/12/29 10:26:53;;;;;;;6.82;1.60;;;11.50;99.90;;;;;;5019806;28;20045;-54
2023/12/29 10:29:20;;;;;;;3.38;1.00;;;11.50;99.90;;;;;;5032124;28;20452;-56
2023/12/29 10:31:46;;;;;;;2.50;0.88;;;11.50;99.90;;;;;;5033098;28;20021;-37
2023/12/29 10:34:28;;;;;;;3.90;0.98;;;11.60;99.90;;;;;;5033202;28;20021;-43
2023/12/29 10:36:55;;;;;;;3.28;1.20;;;11.50;99.90;;;;;;5033540;28;20486;-45
2023/12/29 10:39:20;;;;;;;6.65;1.08;;;11.50;99.90;;;;;;5032712;28;20108;-42
2023/12/29 10:41:46;;;;;;;9.98;1.23;;;11.60;99.90;;;;;;5032968;28;20113;-40
2023/12/29 10:44:12;;;;;;;4.60;0.98;;;11.60;99.90;;;;;;5032855;28;20445;-40
2023/12/29 10:46:38;;;;;;;5.95;1.05;;;11.60;99.90;;;;;;5036116;28;20075;-41
2023/12/29 10:49:11;;;;;;;6.43;1.25;;;11.60;99.90;;;;;;5053248;28;20421;-43
2023/12/29 10:51:38;;;;;;;10.48;1.98;;;11.60;99.90;;;;;;5048177;28;20505;-42
2023/12/29 10:54:04;;;;;;;5.13;0.77;;;11.50;99.90;;;;;;5032980;28;20371;-42
2023/12/29 10:56:30;;;;;;;7.78;1.02;;;11.60;99.90;;;;;;5031351;28;20034;-42
2023/12/29 10:59:00;;;;;;;9.13;1.30;;;11.60;99.90;;;;;;5031921;28;20118;-40
2023/12/29 11:01:25;;;;;;;6.63;0.82;;;11.60;99.90;;;;;;5032837;28;20548;-49
2023/12/29 11:04:02;;;;;;;8.48;0.75;;;11.60;99.90;;;;;;5032947;28;20018;-42
2023/12/29 11:06:28;;;;;;;10.13;1.00;;;11.70;99.90;;;;;;5032616;28;20029;-45
2023/12/29 11:08:55;;;;;;;5.90;1.25;;;11.70;99.90;;;;;;5032493;28;20030;-43
2023/12/29 11:11:21;;;;;;;9.43;0.82;;;11.80;99.90;;;;;;5032875;28;20544;-41
2023/12/29 11:13:47;;;;;;;9.88;1.23;;;11.80;99.90;;;;;;5032126;28;20474;-42
2023/12/29 11:16:14;;;;;;;7.60;1.15;;;11.80;99.90;;;;;;5032414;28;20502;-44
2023/12/29 11:18:42;;;;;;;14.63;2.40;;;11.90;99.90;;;;;;5032202;28;20021;-40
2023/12/29 11:21:09;;;;;;;7.00;1.55;;;11.80;99.90;;;;;;5032386;28;20564;-46
2023/12/29 11:23:35;;;;;;;18.43;1.70;;;11.90;99.90;;;;;;5030844;28;20030;-40
2023/12/29 11:26:03;;;;;;;7.05;1.33;;;11.90;99.90;;;;;;5032294;28;20628;-39
2023/12/29 11:28:28;;;;;;;5.10;1.85;;;12.00;99.90;;;;;;5032665;28;20421;-41
2023/12/29 11:30:54;;;;;;;8.70;1.42;;;12.00;99.90;;;;;;5035356;28;20025;-39
2023/12/29 11:33:30;;;;;;;11.65;2.15;;;12.00;99.90;;;;;;5036450;28;20112;-37
2023/12/29 11:36:03;;;;;;;7.13;1.63;;;12.10;99.90;;;;;;5036365;28;20087;-37
2023/12/29 11:38:53;;;;;;;11.82;1.17;;;12.10;99.90;;;;;;5035375;28;20091;-51
2023/12/29 11:41:32;;;;;;;10.65;2.50;;;12.20;99.90;;;;;;5029176;28;20478;-53
2023/12/29 11:44:01;;;;;;;13.30;1.63;;;12.20;99.90;;;;;;5035816;28;20101;-48
2023/12/29 11:46:36;;;;;;;8.18;2.50;;;12.20;99.90;;;;;;5036035;28;20069;-53
2023/12/29 11:49:05;;;;;;;7.10;1.63;;;12.20;99.90;;;;;;5036233;28;20021;-53
2023/12/29 11:51:45;;;;;;;12.40;1.67;;;12.20;99.90;;;;;;5015114;28;20379;-52
2023/12/29 11:54:22;;;;;;;10.23;1.25;;;12.20;99.90;;;;;;5035831;28;20034;-53
2023/12/29 11:56:47;;;;;;;19.08;1.35;;;12.10;99.90;;;;;;5036401;28;20079;-52
2023/12/29 11:59:17;;;;;;;10.57;1.15;;;12.20;99.90;;;;;;5035531;28;20025;-52
2023/12/29 12:01:43;;;;;;;6.07;1.88;;;12.20;99.90;;;;;;5033616;28;20470;-51
2023/12/29 12:07:21;;;;;;;8.60;0.80;;;12.20;99.90;;;;;;5034815;28;20103;-53
2023/12/29 12:09:49;;;;;;;11.07;2.03;;;12.20;99.90;;;;;;5035652;28;20029;-54
2023/12/29 12:12:38;;;;;;;14.45;2.08;;;12.20;99.90;;;;;;5020772;28;20380;-54
2023/12/29 12:15:24;;;;;;;5.45;1.58;;;12.20;99.90;;;;;;5034285;28;20486;-53
2023/12/29 12:17:51;;;;;;;11.50;1.33;;;12.20;99.90;;;;;;5035235;28;20145;-57
2023/12/29 12:20:17;;;;;;;12.65;1.65;;;12.20;99.90;;;;;;5035506;28;20030;-53
2023/12/29 12:22:45;;;;;;;8.32;1.10;;;12.30;99.90;;;;;;5035720;28;20025;-54
2023/12/29 12:25:12;;;;;;;16.23;1.75;;;12.20;99.90;;;;;;5035525;28;20482;-53
2023/12/29 12:27:38;;;;;;;7.82;1.23;;;12.30;99.90;;;;;;5035849;28;20056;-54
2023/12/29 12:30:04;;;;;;;4.63;1.65;;;12.30;99.90;;;;;;5035085;28;20030;-56
2023/12/29 12:32:30;;;;;;;11.05;1.77;;;12.30;99.90;;;;;;5035026;28;20124;-53
2023/12/29 12:34:56;;;;;;;10.77;1.98;;;12.30;99.90;;;;;;5036184;28;20502;-53
2023/12/29 12:37:29;;;;;;;9.00;1.40;;;12.30;99.90;;;;;;5034769;28;20131;-53
2023/12/29 12:39:55;;;;;;;14.57;3.03;;;12.30;99.90;;;;;;5034409;28;20500;-53
2023/12/29 12:42:22;;;;;;;11.07;1.70;;;12.30;99.90;;;;;;5033711;28;20038;-53
2023/12/29 12:44:54;;;;;;;13.50;2.30;;;12.40;99.90;;;;;;5034407;28;20025;-40